sensor_id;sensor_type;location;lat;lon;timestamp;pressure;altitude;pressure_sealevel;temperature;humidity
9225;BME280;4647;48.072;11.616;2023-03-14T00:01:18;93836.41;;;9.90;72.76
9225;BME280;4647;48.072;11.616;2023-03-14T00:03:48;93822.88;;;9.90;72.61
9225;BME280;4647;48.072;11.616;2023-03-14T00:06:18;93820.59;;;9.88;72.82
9225;BME280;4647;48.072;11.616;2023-03-14T00:08:47;93812.94;;;9.87;72.44
9225;BME280;4647;48.072;11.616;2023-03-14T00:11:18;93824.50;;;9.87;72.50
9225;BME280;4647;48.072;11.616;2023-03-14T00:13:47;93829.69;;;9.38;73.78
9225;BME280;4647;48.072;11.616;2023-03-14T00:16:19;93851.78;;;9.58;73.86
9225;BME280;4647;48.072;11.616;2023-03-14T00:18:48;93851.16;;;9.54;74.04
9225;BME280;4647;48.072;11.616;2023-03-14T00:21:17;93837.50;;;9.58;74.07
9225;BME280;4647;48.072;11.616;2023-03-14T00:23:46;93832.16;;;9.67;73.63
9225;BME280;4647;48.072;11.616;2023-03-14T00:26:17;93831.53;;;9.63;73.79
9225;BME280;4647;48.072;11.616;2023-03-14T00:28:46;93819.84;;;9.66;73.78
9225;BME280;4647;48.072;11.616;2023-03-14T00:31:18;93826.97;;;9.72;73.70
9225;BME280;4647;48.072;11.616;2023-03-14T00:33:46;93808.97;;;9.78;73.28
9225;BME280;4647;48.072;11.616;2023-03-14T00:36:16;93818.34;;;9.87;72.92
9225;BME280;4647;48.072;11.616;2023-03-14T00:38:49;93817.97;;;9.97;72.74
9225;BME280;4647;48.072;11.616;2023-03-14T00:41:20;93809.78;;;9.88;72.53
9225;BME280;4647;48.072;11.616;2023-03-14T00:43:50;93810.97;;;10.09;72.18
9225;BME280;4647;48.072;11.616;2023-03-14T00:46:22;93821.63;;;10.03;72.18
9225;BME280;4647;48.072;11.616;2023-03-14T00:48:50;93838.88;;;10.19;71.86
9225;BME280;4647;48.072;11.616;2023-03-14T00:51:19;93831.16;;;10.17;71.99
9225;BME280;4647;48.072;11.616;2023-03-14T00:53:47;93836.97;;;10.06;72.16
9225;BME280;4647;48.072;11.616;2023-03-14T00:56:16;93845.84;;;10.07;72.33
9225;BME280;4647;48.072;11.616;2023-03-14T00:58:44;93845.38;;;10.21;71.97
9225;BME280;4647;48.072;11.616;2023-03-14T01:01:15;93848.72;;;10.25;71.61
9225;BME280;4647;48.072;11.616;2023-03-14T01:03:46;93854.25;;;10.22;71.94
9225;BME280;4647;48.072;11.616;2023-03-14T01:06:17;93870.53;;;10.31;72.11
9225;BME280;4647;48.072;11.616;2023-03-14T01:08:47;93878.03;;;10.27;72.93
9225;BME280;4647;48.072;11.616;2023-03-14T01:11:17;93868.53;;;10.22;73.15
9225;BME280;4647;48.072;11.616;2023-03-14T01:13:46;93878.34;;;10.29;73.51
9225;BME280;4647;48.072;11.616;2023-03-14T01:16:15;93876.72;;;10.31;73.46
9225;BME280;4647;48.072;11.616;2023-03-14T01:18:47;93868.66;;;10.19;74.21
9225;BME280;4647;48.072;11.616;2023-03-14T01:21:18;93845.16;;;9.94;74.72
9225;BME280;4647;48.072;11.616;2023-03-14T01:23:47;93870.06;;;10.10;75.82
9225;BME280;4647;48.072;11.616;2023-03-14T01:26:19;93869.94;;;10.14;76.10
9225;BME280;4647;48.072;11.616;2023-03-14T01:28:49;93874.16;;;10.15;76.28
9225;BME280;4647;48.072;11.616;2023-03-14T01:31:18;93836.59;;;9.73;77.29
9225;BME280;4647;48.072;11.616;2023-03-14T01:33:50;93833.25;;;9.69;78.02
9225;BME280;4647;48.072;11.616;2023-03-14T01:36:19;93862.38;;;9.87;78.11
9225;BME280;4647;48.072;11.616;2023-03-14T01:38:47;93864.34;;;9.87;78.70
9225;BME280;4647;48.072;11.616;2023-03-14T01:41:18;93850.22;;;9.70;79.00
9225;BME280;4647;48.072;11.616;2023-03-14T01:43:47;93880.38;;;9.81;79.65
9225;BME280;4647;48.072;11.616;2023-03-14T01:46:24;93869.38;;;9.75;80.31
9225;BME280;4647;48.072;11.616;2023-03-14T01:49:01;93869.06;;;9.73;80.63
9225;BME280;4647;48.072;11.616;2023-03-14T01:51:38;93853.97;;;9.50;81.62
9225;BME280;4647;48.072;11.616;2023-03-14T01:54:11;93867.50;;;9.50;81.73
9225;BME280;4647;48.072;11.616;2023-03-14T01:56:41;93860.28;;;9.35;82.43
9225;BME280;4647;48.072;11.616;2023-03-14T01:59:12;93871.84;;;9.48;82.44
9225;BME280;4647;48.072;11.616;2023-03-14T02:01:43;93878.75;;;9.36;83.02
9225;BME280;4647;48.072;11.616;2023-03-14T02:04:16;93881.81;;;9.26;83.89
9225;BME280;4647;48.072;11.616;2023-03-14T02:06:50;93865.09;;;9.05;83.90
9225;BME280;4647;48.072;11.616;2023-03-14T02:09:20;93863.91;;;8.93;85.11
9225;BME280;4647;48.072;11.616;2023-03-14T02:11:49;93881.63;;;8.95;84.83
9225;BME280;4647;48.072;11.616;2023-03-14T02:14:27;93895.44;;;8.97;83.15
9225;BME280;4647;48.072;11.616;2023-03-14T02:16:57;93888.63;;;8.92;83.40
9225;BME280;4647;48.072;11.616;2023-03-14T02:19:37;93891.44;;;8.88;82.09
9225;BME280;4647;48.072;11.616;2023-03-14T02:22:12;93888.34;;;8.77;83.99
9225;BME280;4647;48.072;11.616;2023-03-14T02:24:46;93888.09;;;8.72;84.24
9225;BME280;4647;48.072;11.616;2023-03-14T02:27:20;93875.03;;;8.57;83.81
9225;BME280;4647;48.072;11.616;2023-03-14T02:29:52;93878.91;;;8.69;83.66
9225;BME280;4647;48.072;11.616;2023-03-14T02:32:22;93861.75;;;8.63;83.95
9225;BME280;4647;48.072;11.616;2023-03-14T02:34:54;93855.03;;;8.68;84.38
9225;BME280;4647;48.072;11.616;2023-03-14T02:37:28;93837.44;;;8.63;84.51
9225;BME280;4647;48.072;11.616;2023-03-14T02:40:00;93822.22;;;8.69;84.32
9225;BME280;4647;48.072;11.616;2023-03-14T02:42:32;93801.47;;;8.66;84.25
9225;BME280;4647;48.072;11.616;2023-03-14T02:45:37;93794.25;;;8.50;85.05
9225;BME280;4647;48.072;11.616;2023-03-14T02:48:09;93767.91;;;8.42;84.78
9225;BME280;4647;48.072;11.616;2023-03-14T02:50:39;93766.72;;;8.43;84.56
9225;BME280;4647;48.072;11.616;2023-03-14T02:53:08;93759.59;;;8.49;84.57
9225;BME280;4647;48.072;11.616;2023-03-14T02:55:36;93758.63;;;8.55;84.18
9225;BME280;4647;48.072;11.616;2023-03-14T02:58:07;93753.13;;;8.59;83.76
9225;BME280;4647;48.072;11.616;2023-03-14T03:00:36;93745.13;;;8.43;83.66
9225;BME280;4647;48.072;11.616;2023-03-14T03:03:04;93749.56;;;8.49;83.50
9225;BME280;4647;48.072;11.616;2023-03-14T03:05:33;93747.41;;;8.57;83.21
9225;BME280;4647;48.072;11.616;2023-03-14T03:08:03;93745.47;;;8.57;83.23
9225;BME280;4647;48.072;11.616;2023-03-14T03:10:32;93719.78;;;8.40;83.21
9225;BME280;4647;48.072;11.616;2023-03-14T03:13:01;93713.75;;;8.36;83.34
9225;BME280;4647;48.072;11.616;2023-03-14T03:15:32;93707.03;;;8.41;83.19
9225;BME280;4647;48.072;11.616;2023-03-14T03:18:01;93703.78;;;8.33;82.75
9225;BME280;4647;48.072;11.616;2023-03-14T03:20:30;93698.38;;;8.20;83.22
9225;BME280;4647;48.072;11.616;2023-03-14T03:22:58;93700.56;;;8.13;83.12
9225;BME280;4647;48.072;11.616;2023-03-14T03:25:27;93703.47;;;8.18;83.46
9225;BME280;4647;48.072;11.616;2023-03-14T03:27:56;93698.72;;;8.22;83.01
9225;BME280;4647;48.072;11.616;2023-03-14T03:30:25;93702.50;;;8.12;83.25
9225;BME280;4647;48.072;11.616;2023-03-14T03:32:56;93703.56;;;8.15;83.00
9225;BME280;4647;48.072;11.616;2023-03-14T03:35:25;93708.09;;;8.18;82.64
9225;BME280;4647;48.072;11.616;2023-03-14T03:37:53;93713.28;;;8.12;82.99
9225;BME280;4647;48.072;11.616;2023-03-14T03:40:22;93720.06;;;8.04;82.53
9225;BME280;4647;48.072;11.616;2023-03-14T03:42:51;93717.38;;;8.04;81.99
9225;BME280;4647;48.072;11.616;2023-03-14T03:45:19;93705.19;;;7.99;81.00
9225;BME280;4647;48.072;11.616;2023-03-14T03:47:48;93692.66;;;7.93;81.02
9225;BME280;4647;48.072;11.616;2023-03-14T03:50:20;93709.50;;;7.97;81.26
9225;BME280;4647;48.072;11.616;2023-03-14T03:52:49;93694.81;;;7.73;80.57
9225;BME280;4647;48.072;11.616;2023-03-14T03:55:18;93715.66;;;7.97;80.44
9225;BME280;4647;48.072;11.616;2023-03-14T03:57:47;93730.22;;;7.87;80.71
9225;BME280;4647;48.072;11.616;2023-03-14T04:00:16;93719.09;;;7.85;80.73
9225;BME280;4647;48.072;11.616;2023-03-14T04:02:44;93710.69;;;7.83;80.55
9225;BME280;4647;48.072;11.616;2023-03-14T04:05:13;93714.13;;;7.84;80.59
9225;BME280;4647;48.072;11.616;2023-03-14T04:07:44;93713.13;;;7.78;80.26
9225;BME280;4647;48.072;11.616;2023-03-14T04:10:13;93714.75;;;7.75;80.51
9225;BME280;4647;48.072;11.616;2023-03-14T04:12:41;93712.81;;;7.76;80.40
9225;BME280;4647;48.072;11.616;2023-03-14T04:15:10;93713.25;;;7.74;80.46
9225;BME280;4647;48.072;11.616;2023-03-14T04:17:39;93705.16;;;7.74;80.54
9225;BME280;4647;48.072;11.616;2023-03-14T04:20:08;93713.13;;;7.78;80.47
9225;BME280;4647;48.072;11.616;2023-03-14T04:22:38;93704.72;;;7.76;80.50
9225;BME280;4647;48.072;11.616;2023-03-14T04:25:09;93690.94;;;7.74;80.40
9225;BME280;4647;48.072;11.616;2023-03-14T04:27:38;93674.22;;;7.66;80.07
9225;BME280;4647;48.072;11.616;2023-03-14T04:30:08;93683.91;;;7.63;80.41
9225;BME280;4647;48.072;11.616;2023-03-14T04:32:38;93678.31;;;7.58;80.50
9225;BME280;4647;48.072;11.616;2023-03-14T04:35:08;93656.00;;;7.57;80.32
9225;BME280;4647;48.072;11.616;2023-03-14T04:37:36;93660.53;;;7.60;80.20
9225;BME280;4647;48.072;11.616;2023-03-14T04:40:09;93658.59;;;7.61;79.97
9225;BME280;4647;48.072;11.616;2023-03-14T04:42:39;93668.38;;;7.55;79.93
9225;BME280;4647;48.072;11.616;2023-03-14T04:45:08;93666.00;;;7.57;79.84
9225;BME280;4647;48.072;11.616;2023-03-14T04:47:36;93669.25;;;7.64;79.28
9225;BME280;4647;48.072;11.616;2023-03-14T04:50:06;93652.53;;;7.57;79.42
9225;BME280;4647;48.072;11.616;2023-03-14T04:52:34;93660.19;;;7.58;79.30
9225;BME280;4647;48.072;11.616;2023-03-14T04:55:04;93651.75;;;7.56;78.95
9225;BME280;4647;48.072;11.616;2023-03-14T04:57:35;93648.31;;;7.56;78.80
9225;BME280;4647;48.072;11.616;2023-03-14T05:00:05;93639.72;;;7.61;78.59
9225;BME280;4647;48.072;11.616;2023-03-14T05:02:34;93640.03;;;7.63;78.82
9225;BME280;4647;48.072;11.616;2023-03-14T05:05:04;93636.47;;;7.66;78.66
9225;BME280;4647;48.072;11.616;2023-03-14T05:07:32;93644.03;;;7.58;78.65
9225;BME280;4647;48.072;11.616;2023-03-14T05:10:01;93647.47;;;7.59;78.78
9225;BME280;4647;48.072;11.616;2023-03-14T05:12:29;93639.25;;;7.50;79.21
9225;BME280;4647;48.072;11.616;2023-03-14T05:15:01;93630.22;;;7.44;79.00
9225;BME280;4647;48.072;11.616;2023-03-14T05:17:30;93628.81;;;7.52;79.08
9225;BME280;4647;48.072;11.616;2023-03-14T05:19:58;93617.50;;;7.44;79.02
9225;BME280;4647;48.072;11.616;2023-03-14T05:22:27;93625.16;;;7.58;78.83
9225;BME280;4647;48.072;11.616;2023-03-14T05:24:55;93622.56;;;7.55;78.77
9225;BME280;4647;48.072;11.616;2023-03-14T05:27:24;93617.59;;;7.53;78.67
9225;BME280;4647;48.072;11.616;2023-03-14T05:29:52;93627.94;;;7.55;78.79
9225;BME280;4647;48.072;11.616;2023-03-14T05:32:24;93626.69;;;7.59;78.44
9225;BME280;4647;48.072;11.616;2023-03-14T05:34:52;93628.25;;;7.57;78.80
9225;BME280;4647;48.072;11.616;2023-03-14T05:37:24;93638.94;;;7.48;79.09
9225;BME280;4647;48.072;11.616;2023-03-14T05:39:52;93642.28;;;7.52;79.06
9225;BME280;4647;48.072;11.616;2023-03-14T05:42:20;93629.56;;;7.52;79.01
9225;BME280;4647;48.072;11.616;2023-03-14T05:44:49;93633.00;;;7.53;79.13
9225;BME280;4647;48.072;11.616;2023-03-14T05:47:17;93630.00;;;7.51;79.09
9225;BME280;4647;48.072;11.616;2023-03-14T05:49:49;93624.06;;;7.56;78.94
9225;BME280;4647;48.072;11.616;2023-03-14T05:52:17;93620.53;;;7.59;78.90
9225;BME280;4647;48.072;11.616;2023-03-14T05:54:46;93610.94;;;7.58;78.72
9225;BME280;4647;48.072;11.616;2023-03-14T05:57:14;93619.78;;;7.58;78.72
9225;BME280;4647;48.072;11.616;2023-03-14T05:59:42;93612.00;;;7.60;78.82
9225;BME280;4647;48.072;11.616;2023-03-14T06:02:11;93612.66;;;7.64;78.65
9225;BME280;4647;48.072;11.616;2023-03-14T06:04:39;93623.31;;;7.68;78.44
9225;BME280;4647;48.072;11.616;2023-03-14T06:07:10;93614.69;;;7.73;78.32
9225;BME280;4647;48.072;11.616;2023-03-14T06:09:39;93620.09;;;7.73;78.00
9225;BME280;4647;48.072;11.616;2023-03-14T06:12:07;93619.09;;;7.80;78.35
9225;BME280;4647;48.072;11.616;2023-03-14T06:14:36;93609.44;;;7.82;78.42
9225;BME280;4647;48.072;11.616;2023-03-14T06:17:04;93619.03;;;7.83;78.58
9225;BME280;4647;48.072;11.616;2023-03-14T06:19:32;93620.31;;;7.91;78.34
9225;BME280;4647;48.072;11.616;2023-03-14T06:22:01;93617.69;;;8.00;77.94
9225;BME280;4647;48.072;11.616;2023-03-14T06:24:32;93610.03;;;7.99;77.78
9225;BME280;4647;48.072;11.616;2023-03-14T06:27:01;93608.53;;;7.98;77.73
9225;BME280;4647;48.072;11.616;2023-03-14T06:29:30;93610.47;;;7.97;78.12
9225;BME280;4647;48.072;11.616;2023-03-14T06:31:59;93595.69;;;8.02;77.71
9225;BME280;4647;48.072;11.616;2023-03-14T06:34:28;93584.47;;;8.04;77.41
9225;BME280;4647;48.072;11.616;2023-03-14T06:36:56;93587.91;;;8.17;76.73
9225;BME280;4647;48.072;11.616;2023-03-14T06:39:25;93579.13;;;8.25;76.69
9225;BME280;4647;48.072;11.616;2023-03-14T06:41:56;93568.53;;;8.44;76.22
9225;BME280;4647;48.072;11.616;2023-03-14T06:44:24;93574.97;;;8.59;75.59
9225;BME280;4647;48.072;11.616;2023-03-14T06:46:53;93573.84;;;8.69;75.26
9225;BME280;4647;48.072;11.616;2023-03-14T06:49:21;93583.66;;;8.76;74.55
9225;BME280;4647;48.072;11.616;2023-03-14T06:51:50;93589.28;;;8.90;74.42
9225;BME280;4647;48.072;11.616;2023-03-14T06:54:18;93591.31;;;8.99;73.80
9225;BME280;4647;48.072;11.616;2023-03-14T06:56:47;93592.06;;;9.00;73.35
9225;BME280;4647;48.072;11.616;2023-03-14T06:59:18;93604.34;;;9.22;72.62
9225;BME280;4647;48.072;11.616;2023-03-14T07:01:47;93611.16;;;9.05;72.97
9225;BME280;4647;48.072;11.616;2023-03-14T07:04:16;93604.47;;;8.97;73.56
9225;BME280;4647;48.072;11.616;2023-03-14T07:06:45;93613.69;;;9.00;73.52
9225;BME280;4647;48.072;11.616;2023-03-14T07:09:14;93602.22;;;8.96;73.49
9225;BME280;4647;48.072;11.616;2023-03-14T07:11:44;93593.63;;;8.88;73.76
9225;BME280;4647;48.072;11.616;2023-03-14T07:14:12;93605.38;;;8.94;73.32
9225;BME280;4647;48.072;11.616;2023-03-14T07:16:43;93595.44;;;8.91;73.58
9225;BME280;4647;48.072;11.616;2023-03-14T07:19:12;93608.22;;;8.56;74.86
9225;BME280;4647;48.072;11.616;2023-03-14T07:21:40;93605.00;;;8.48;75.29
9225;BME280;4647;48.072;11.616;2023-03-14T07:24:08;93599.94;;;8.72;74.75
9225;BME280;4647;48.072;11.616;2023-03-14T07:26:38;93612.16;;;8.77;74.49
9225;BME280;4647;48.072;11.616;2023-03-14T07:29:06;93617.63;;;8.51;75.47
9225;BME280;4647;48.072;11.616;2023-03-14T07:31:35;93609.66;;;8.48;75.55
9225;BME280;4647;48.072;11.616;2023-03-14T07:34:06;93618.16;;;8.59;75.43
9225;BME280;4647;48.072;11.616;2023-03-14T07:36:35;93603.53;;;8.91;74.46
9225;BME280;4647;48.072;11.616;2023-03-14T07:39:03;93597.38;;;8.90;73.72
9225;BME280;4647;48.072;11.616;2023-03-14T07:41:32;93595.84;;;9.02;70.55
9225;BME280;4647;48.072;11.616;2023-03-14T07:44:01;93600.09;;;9.12;70.32
9225;BME280;4647;48.072;11.616;2023-03-14T07:46:29;93587.19;;;9.16;69.54
9225;BME280;4647;48.072;11.616;2023-03-14T07:48:58;93588.19;;;9.32;68.37
9225;BME280;4647;48.072;11.616;2023-03-14T07:51:29;93585.53;;;9.41;68.08
9225;BME280;4647;48.072;11.616;2023-03-14T07:53:57;93585.94;;;9.61;67.55
9225;BME280;4647;48.072;11.616;2023-03-14T07:56:26;93595.47;;;9.75;66.42
9225;BME280;4647;48.072;11.616;2023-03-14T07:58:54;93589.78;;;9.91;66.07
9225;BME280;4647;48.072;11.616;2023-03-14T08:01:23;93592.56;;;10.09;65.99
9225;BME280;4647;48.072;11.616;2023-03-14T08:03:51;93587.41;;;10.42;64.61
9225;BME280;4647;48.072;11.616;2023-03-14T08:06:20;93585.00;;;10.54;64.23
9225;BME280;4647;48.072;11.616;2023-03-14T08:08:51;93599.88;;;10.58;63.89
9225;BME280;4647;48.072;11.616;2023-03-14T08:11:19;93591.31;;;10.51;63.76
9225;BME280;4647;48.072;11.616;2023-03-14T08:13:48;93591.16;;;10.45;63.62
9225;BME280;4647;48.072;11.616;2023-03-14T08:16:18;93596.13;;;10.56;63.67
9225;BME280;4647;48.072;11.616;2023-03-14T08:18:46;93593.13;;;10.54;63.54
9225;BME280;4647;48.072;11.616;2023-03-14T08:21:15;93609.97;;;10.76;63.30
9225;BME280;4647;48.072;11.616;2023-03-14T08:23:43;93594.75;;;10.88;62.49
9225;BME280;4647;48.072;11.616;2023-03-14T08:26:14;93572.81;;;10.49;62.77
9225;BME280;4647;48.072;11.616;2023-03-14T08:28:42;93603.34;;;10.77;62.55
9225;BME280;4647;48.072;11.616;2023-03-14T08:31:11;93602.16;;;10.96;61.98
9225;BME280;4647;48.072;11.616;2023-03-14T08:33:39;93611.78;;;11.06;61.90
9225;BME280;4647;48.072;11.616;2023-03-14T08:36:09;93617.38;;;10.94;61.71
9225;BME280;4647;48.072;11.616;2023-03-14T08:38:37;93621.72;;;10.91;61.75
9225;BME280;4647;48.072;11.616;2023-03-14T08:41:08;93618.41;;;10.87;61.50
9225;BME280;4647;48.072;11.616;2023-03-14T08:43:39;93630.75;;;10.88;61.76
9225;BME280;4647;48.072;11.616;2023-03-14T08:46:07;93625.03;;;10.95;61.26
9225;BME280;4647;48.072;11.616;2023-03-14T08:48:36;93628.06;;;10.97;61.74
9225;BME280;4647;48.072;11.616;2023-03-14T08:51:06;93633.31;;;11.01;61.40
9225;BME280;4647;48.072;11.616;2023-03-14T08:53:36;93630.28;;;10.81;61.83
9225;BME280;4647;48.072;11.616;2023-03-14T08:56:06;93641.88;;;10.72;61.73
9225;BME280;4647;48.072;11.616;2023-03-14T08:58:35;93644.00;;;10.86;61.74
9225;BME280;4647;48.072;11.616;2023-03-14T09:01:07;93643.88;;;10.90;61.87
9225;BME280;4647;48.072;11.616;2023-03-14T09:03:37;93645.78;;;10.62;62.98
9225;BME280;4647;48.072;11.616;2023-03-14T09:06:07;93643.53;;;10.88;62.14
9225;BME280;4647;48.072;11.616;2023-03-14T09:08:36;93639.78;;;11.03;61.48
9225;BME280;4647;48.072;11.616;2023-03-14T09:11:07;93651.06;;;11.20;61.63
9225;BME280;4647;48.072;11.616;2023-03-14T09:13:35;93648.94;;;11.33;60.90
9225;BME280;4647;48.072;11.616;2023-03-14T09:16:07;93656.63;;;11.44;60.82
9225;BME280;4647;48.072;11.616;2023-03-14T09:18:36;93644.28;;;11.43;60.98
9225;BME280;4647;48.072;11.616;2023-03-14T09:21:05;93648.47;;;11.53;60.31
9225;BME280;4647;48.072;11.616;2023-03-14T09:23:34;93646.34;;;11.57;60.24
9225;BME280;4647;48.072;11.616;2023-03-14T09:26:02;93640.31;;;11.62;60.24
9225;BME280;4647;48.072;11.616;2023-03-14T09:28:31;93641.69;;;11.49;60.55
9225;BME280;4647;48.072;11.616;2023-03-14T09:31:08;93630.88;;;11.40;61.00
9225;BME280;4647;48.072;11.616;2023-03-14T09:33:38;93644.72;;;11.32;61.29
9225;BME280;4647;48.072;11.616;2023-03-14T09:36:07;93637.78;;;11.31;61.13
9225;BME280;4647;48.072;11.616;2023-03-14T09:38:36;93641.72;;;11.40;61.39
9225;BME280;4647;48.072;11.616;2023-03-14T09:41:13;93622.91;;;11.27;61.16
9225;BME280;4647;48.072;11.616;2023-03-14T09:43:43;93631.78;;;11.09;62.72
9225;BME280;4647;48.072;11.616;2023-03-14T09:46:15;93628.34;;;11.18;62.88
9225;BME280;4647;48.072;11.616;2023-03-14T09:48:45;93621.53;;;10.58;65.33
9225;BME280;4647;48.072;11.616;2023-03-14T09:51:17;93627.88;;;10.46;66.28
9225;BME280;4647;48.072;11.616;2023-03-14T09:53:48;93620.78;;;10.58;66.25
9225;BME280;4647;48.072;11.616;2023-03-14T09:56:19;93626.09;;;10.98;65.04
9225;BME280;4647;48.072;11.616;2023-03-14T09:58:51;93610.25;;;11.24;63.02
9225;BME280;4647;48.072;11.616;2023-03-14T10:01:26;93604.25;;;11.01;61.93
9225;BME280;4647;48.072;11.616;2023-03-14T10:03:57;93608.44;;;11.30;60.25
9225;BME280;4647;48.072;11.616;2023-03-14T10:06:27;93600.97;;;11.58;59.95
9225;BME280;4647;48.072;11.616;2023-03-14T10:08:57;93609.38;;;11.87;58.66
9225;BME280;4647;48.072;11.616;2023-03-14T10:11:25;93614.84;;;12.11;57.71
9225;BME280;4647;48.072;11.616;2023-03-14T10:14:06;93607.97;;;12.25;57.36
9225;BME280;4647;48.072;11.616;2023-03-14T10:16:41;93609.44;;;12.35;57.16
9225;BME280;4647;48.072;11.616;2023-03-14T10:19:11;93585.22;;;12.46;56.43
9225;BME280;4647;48.072;11.616;2023-03-14T10:21:41;93619.25;;;12.80;55.76
9225;BME280;4647;48.072;11.616;2023-03-14T10:24:19;93611.78;;;12.90;56.06
9225;BME280;4647;48.072;11.616;2023-03-14T10:26:49;93612.16;;;12.98;55.98
9225;BME280;4647;48.072;11.616;2023-03-14T10:29:18;93610.66;;;13.20;55.18
9225;BME280;4647;48.072;11.616;2023-03-14T10:31:51;93608.88;;;13.17;55.07
9225;BME280;4647;48.072;11.616;2023-03-14T10:34:25;93604.78;;;13.51;54.57
9225;BME280;4647;48.072;11.616;2023-03-14T10:36:56;93600.59;;;14.00;53.74
9225;BME280;4647;48.072;11.616;2023-03-14T10:39:33;93586.13;;;13.94;51.80
9225;BME280;4647;48.072;11.616;2023-03-14T10:42:12;93590.47;;;13.71;52.91
9225;BME280;4647;48.072;11.616;2023-03-14T10:44:43;93599.19;;;14.05;52.34
9225;BME280;4647;48.072;11.616;2023-03-14T10:47:19;93588.41;;;14.31;51.37
9225;BME280;4647;48.072;11.616;2023-03-14T10:49:50;93594.38;;;14.50;51.03
9225;BME280;4647;48.072;11.616;2023-03-14T10:52:21;93615.72;;;14.71;50.76
9225;BME280;4647;48.072;11.616;2023-03-14T10:54:54;93611.00;;;15.13;48.94
9225;BME280;4647;48.072;11.616;2023-03-14T10:57:25;93602.97;;;15.03;48.82
9225;BME280;4647;48.072;11.616;2023-03-14T10:59:55;93605.38;;;14.40;50.43
9225;BME280;4647;48.072;11.616;2023-03-14T11:02:39;93598.00;;;13.62;49.89
9225;BME280;4647;48.072;11.616;2023-03-14T11:05:25;93616.59;;;13.34;51.91
9225;BME280;4647;48.072;11.616;2023-03-14T11:08:01;93601.56;;;13.68;50.00
9225;BME280;4647;48.072;11.616;2023-03-14T11:10:32;93597.53;;;13.78;49.08
9225;BME280;4647;48.072;11.616;2023-03-14T11:13:12;93613.03;;;13.28;51.22
9225;BME280;4647;48.072;11.616;2023-03-14T11:15:51;93601.69;;;13.59;50.85
9225;BME280;4647;48.072;11.616;2023-03-14T11:18:47;93605.63;;;13.58;50.88
9225;BME280;4647;48.072;11.616;2023-03-14T11:21:21;93609.47;;;13.51;51.07
9225;BME280;4647;48.072;11.616;2023-03-14T11:24:00;93610.22;;;13.51;50.43
9225;BME280;4647;48.072;11.616;2023-03-14T11:26:34;93607.00;;;13.68;50.25
9225;BME280;4647;48.072;11.616;2023-03-14T11:29:15;93603.94;;;13.75;50.09
9225;BME280;4647;48.072;11.616;2023-03-14T11:31:48;93593.88;;;13.81;49.38
9225;BME280;4647;48.072;11.616;2023-03-14T11:34:25;93576.00;;;13.06;48.63
9225;BME280;4647;48.072;11.616;2023-03-14T11:36:59;93595.38;;;13.38;48.31
9225;BME280;4647;48.072;11.616;2023-03-14T11:39:36;93594.44;;;13.26;47.84
9225;BME280;4647;48.072;11.616;2023-03-14T11:42:11;93574.84;;;13.51;47.19
9225;BME280;4647;48.072;11.616;2023-03-14T11:44:43;93573.16;;;13.39;46.57
9225;BME280;4647;48.072;11.616;2023-03-14T11:47:17;93580.09;;;14.20;45.29
9225;BME280;4647;48.072;11.616;2023-03-14T11:49:54;93577.00;;;14.12;44.92
9225;BME280;4647;48.072;11.616;2023-03-14T11:52:29;93568.78;;;14.27;44.47
9225;BME280;4647;48.072;11.616;2023-03-14T11:55:01;93586.09;;;13.59;45.53
9225;BME280;4647;48.072;11.616;2023-03-14T11:57:33;93571.38;;;13.51;46.58
9225;BME280;4647;48.072;11.616;2023-03-14T12:00:04;93572.03;;;13.31;46.60
9225;BME280;4647;48.072;11.616;2023-03-14T12:02:43;93566.63;;;13.07;46.62
9225;BME280;4647;48.072;11.616;2023-03-14T12:05:42;93575.78;;;12.80;46.99
9225;BME280;4647;48.072;11.616;2023-03-14T12:08:23;93574.47;;;13.44;46.23
9225;BME280;4647;48.072;11.616;2023-03-14T12:10:55;93559.47;;;13.34;45.28
9225;BME280;4647;48.072;11.616;2023-03-14T12:13:28;93565.53;;;13.43;45.56
9225;BME280;4647;48.072;11.616;2023-03-14T12:15:59;93567.97;;;13.71;45.67
9225;BME280;4647;48.072;11.616;2023-03-14T12:18:29;93568.06;;;13.47;45.82
9225;BME280;4647;48.072;11.616;2023-03-14T12:21:03;93568.97;;;13.88;46.37
9225;BME280;4647;48.072;11.616;2023-03-14T12:23:36;93561.88;;;13.76;46.31
9225;BME280;4647;48.072;11.616;2023-03-14T12:26:16;93579.44;;;13.75;45.20
9225;BME280;4647;48.072;11.616;2023-03-14T12:28:49;93566.59;;;13.31;47.01
9225;BME280;4647;48.072;11.616;2023-03-14T12:31:37;93573.31;;;13.80;46.53
9225;BME280;4647;48.072;11.616;2023-03-14T12:37:19;93569.44;;;14.01;46.79
9225;BME280;4647;48.072;11.616;2023-03-14T12:40:01;93559.44;;;13.48;46.79
9225;BME280;4647;48.072;11.616;2023-03-14T12:42:43;93541.72;;;13.53;46.58
9225;BME280;4647;48.072;11.616;2023-03-14T12:45:23;93578.81;;;13.12;47.56
9225;BME280;4647;48.072;11.616;2023-03-14T12:48:01;93565.34;;;13.17;47.51
9225;BME280;4647;48.072;11.616;2023-03-14T12:50:34;93577.31;;;13.11;47.58
9225;BME280;4647;48.072;11.616;2023-03-14T12:56:15;93563.34;;;13.03;48.10
9225;BME280;4647;48.072;11.616;2023-03-14T12:58:57;93577.91;;;12.76;48.31
9225;BME280;4647;48.072;11.616;2023-03-14T13:01:32;93579.56;;;13.12;48.06
9225;BME280;4647;48.072;11.616;2023-03-14T13:04:04;93570.19;;;13.13;47.48
9225;BME280;4647;48.072;11.616;2023-03-14T13:06:51;93592.03;;;13.04;48.77
9225;BME280;4647;48.072;11.616;2023-03-14T13:12:25;93584.44;;;13.08;48.47
9225;BME280;4647;48.072;11.616;2023-03-14T13:14:59;93588.19;;;12.57;49.92
9225;BME280;4647;48.072;11.616;2023-03-14T13:17:32;93591.53;;;12.91;49.34
9225;BME280;4647;48.072;11.616;2023-03-14T13:20:05;93588.56;;;13.04;49.13
9225;BME280;4647;48.072;11.616;2023-03-14T13:22:38;93582.94;;;12.54;49.44
9225;BME280;4647;48.072;11.616;2023-03-14T13:25:10;93606.75;;;12.26;50.87
9225;BME280;4647;48.072;11.616;2023-03-14T13:27:41;93585.59;;;12.06;51.54
9225;BME280;4647;48.072;11.616;2023-03-14T13:30:17;93595.97;;;12.17;51.11
9225;BME280;4647;48.072;11.616;2023-03-14T13:32:48;93622.81;;;12.15;51.18
9225;BME280;4647;48.072;11.616;2023-03-14T13:35:19;93634.88;;;12.14;51.16
9225;BME280;4647;48.072;11.616;2023-03-14T13:37:53;93622.03;;;11.90;52.20
9225;BME280;4647;48.072;11.616;2023-03-14T13:40:30;93640.69;;;11.97;52.41
9225;BME280;4647;48.072;11.616;2023-03-14T13:43:10;93638.47;;;11.87;52.95
9225;BME280;4647;48.072;11.616;2023-03-14T13:45:44;93665.19;;;11.52;54.59
9225;BME280;4647;48.072;11.616;2023-03-14T13:48:13;93601.06;;;11.21;54.66